createdAt,value
2023-04-19T00:01:29.665Z,94483.53
2023-04-19T00:04:00.313Z,94487.47
2023-04-19T00:06:30.620Z,94478.97
2023-04-19T00:09:00.028Z,94475.97
2023-04-19T00:11:29.106Z,94477.25
2023-04-19T00:13:58.102Z,94480.44
2023-04-19T00:16:27.303Z,94483.66
2023-04-19T00:18:56.805Z,94479.88
2023-04-19T00:21:27.574Z,94477.03
2023-04-19T00:23:56.729Z,94477.69
2023-04-19T00:26:26.201Z,94476.63
2023-04-19T00:28:55.467Z,94468.94
2023-04-19T00:31:24.808Z,94469.66
2023-04-19T00:33:54.041Z,94463.56
2023-04-19T00:36:23.197Z,94464.56
2023-04-19T00:38:53.748Z,94461.41
2023-04-19T00:41:22.967Z,94464.84
2023-04-19T00:43:52.095Z,94464.94
2023-04-19T00:46:21.943Z,94468.56
2023-04-19T00:48:52.057Z,94470.78
2023-04-19T00:51:21.844Z,94463.31
2023-04-19T00:53:53.156Z,94470.47
2023-04-19T00:56:24.359Z,94467.22
2023-04-19T00:58:56.688Z,94460.00
2023-04-19T01:01:25.986Z,94468.59
2023-04-19T01:03:55.686Z,94457.78
2023-04-19T01:06:25.014Z,94465.97
2023-04-19T01:08:55.700Z,94463.94
2023-04-19T01:11:25.169Z,94466.84
2023-04-19T01:13:54.577Z,94456.56
2023-04-19T01:16:23.785Z,94457.63
2023-04-19T01:18:53.252Z,94459.84
2023-04-19T01:21:23.462Z,94458.56
2023-04-19T01:23:54.150Z,94457.06
2023-04-19T01:26:24.898Z,94467.69
2023-04-19T01:28:53.906Z,94454.31
2023-04-19T01:31:23.043Z,94456.25
2023-04-19T01:33:52.121Z,94453.66
2023-04-19T01:36:21.272Z,94449.13
2023-04-19T01:38:51.417Z,94455.94
2023-04-19T01:41:23.085Z,94452.16
2023-04-19T01:43:52.247Z,94444.94
2023-04-19T01:46:21.479Z,94448.56
2023-04-19T01:48:50.625Z,94448.56
2023-04-19T01:51:22.008Z,94445.28
2023-04-19T01:53:53.928Z,94437.03
2023-04-19T01:56:26.868Z,94437.38
2023-04-19T01:58:56.313Z,94440.91
2023-04-19T02:01:25.663Z,94437.38
2023-04-19T02:03:54.865Z,94436.31
2023-04-19T02:06:24.992Z,94435.78
2023-04-19T02:08:54.222Z,94432.22
2023-04-19T02:11:23.447Z,94433.91
2023-04-19T02:13:54.086Z,94436.28
2023-04-19T02:16:23.365Z,94430.19
2023-04-19T02:18:53.585Z,94432.31
2023-04-19T02:21:23.097Z,94438.66
2023-04-19T02:23:52.397Z,94430.59
2023-04-19T02:26:21.986Z,94433.56
2023-04-19T02:28:54.129Z,94424.50
2023-04-19T02:31:23.635Z,94432.75
2023-04-19T02:33:52.867Z,94421.13
2023-04-19T02:36:22.044Z,94428.59
2023-04-19T02:38:51.308Z,94420.19
2023-04-19T02:41:22.467Z,94425.63
2023-04-19T02:43:51.775Z,94418.34
2023-04-19T02:46:22.655Z,94426.50
2023-04-19T02:48:51.952Z,94424.44
2023-04-19T02:51:21.405Z,94421.47
2023-04-19T02:53:50.543Z,94428.03
2023-04-19T02:56:19.752Z,94427.41
2023-04-19T02:58:49.912Z,94423.53
2023-04-19T03:01:19.017Z,94429.00
2023-04-19T03:03:49.828Z,94420.91
2023-04-19T03:06:19.225Z,94412.34
2023-04-19T03:08:48.392Z,94416.59
2023-04-19T03:11:19.847Z,94416.19
2023-04-19T03:13:49.431Z,94428.25
2023-04-19T03:16:18.578Z,94416.66
2023-04-19T03:18:49.566Z,94421.03
2023-04-19T03:21:22.850Z,94416.25
2023-04-19T03:23:55.603Z,94416.03
2023-04-19T03:26:26.688Z,94422.97
2023-04-19T03:28:58.530Z,94417.78
2023-04-19T03:31:48.045Z,94419.81
2023-04-19T03:34:19.138Z,94417.78
2023-04-19T03:36:50.694Z,94422.53
2023-04-19T03:39:21.214Z,94425.97
2023-04-19T03:41:53.566Z,94435.41
2023-04-19T03:44:38.456Z,94430.13
2023-04-19T03:47:09.380Z,94427.81
2023-04-19T03:49:45.998Z,94429.41
2023-04-19T03:52:15.570Z,94428.69
2023-04-19T03:54:44.727Z,94432.38
2023-04-19T03:57:26.824Z,94436.22
2023-04-19T03:59:57.194Z,94440.06
2023-04-19T04:02:26.675Z,94436.94
2023-04-19T04:04:57.682Z,94431.00
2023-04-19T04:07:27.013Z,94445.59
2023-04-19T04:09:56.645Z,94435.63
2023-04-19T04:12:26.109Z,94436.63
2023-04-19T04:14:58.469Z,94437.66
2023-04-19T04:17:27.842Z,94440.84
2023-04-19T04:19:58.978Z,94442.78
2023-04-19T04:22:33.117Z,94443.00
2023-04-19T04:25:02.610Z,94438.84
2023-04-19T04:27:39.578Z,94440.03
2023-04-19T04:30:15.470Z,94450.94
2023-04-19T04:32:45.218Z,94447.09
2023-04-19T04:35:15.868Z,94448.13
2023-04-19T04:37:54.091Z,94443.94
2023-04-19T04:40:23.593Z,94444.53
2023-04-19T04:42:54.443Z,94445.16
2023-04-19T04:45:26.168Z,94444.13
2023-04-19T04:47:55.507Z,94451.00
2023-04-19T04:50:26.097Z,94443.50
2023-04-19T04:52:55.885Z,94439.56
2023-04-19T04:55:30.457Z,94438.75
2023-04-19T04:57:59.873Z,94444.53
2023-04-19T05:00:46.260Z,94444.22
2023-04-19T05:03:15.549Z,94441.56
2023-04-19T05:05:52.008Z,94439.06
2023-04-19T05:08:21.262Z,94441.31
2023-04-19T05:10:50.973Z,94442.19
2023-04-19T05:13:22.537Z,94445.41
2023-04-19T05:15:53.206Z,94439.97
2023-04-19T05:18:22.677Z,94443.22
2023-04-19T05:20:53.353Z,94442.19
2023-04-19T05:23:27.051Z,94444.16
2023-04-19T05:25:56.863Z,94445.22
2023-04-19T05:28:28.796Z,94442.34
2023-04-19T05:31:07.704Z,94447.47
2023-04-19T05:33:43.422Z,94451.41
2023-04-19T05:36:14.057Z,94450.44
2023-04-19T05:38:43.173Z,94449.84
2023-04-19T05:41:12.879Z,94454.31
2023-04-19T05:43:41.976Z,94453.91
2023-04-19T05:46:11.628Z,94457.84
2023-04-19T05:48:41.009Z,94467.06
2023-04-19T05:51:34.480Z,94460.22
2023-04-19T05:54:12.789Z,94455.22
2023-04-19T05:56:43.514Z,94462.25
2023-04-19T05:59:14.287Z,94460.50
2023-04-19T06:01:43.575Z,94471.00
2023-04-19T06:04:13.043Z,94467.25
2023-04-19T06:06:44.609Z,94465.41
2023-04-19T06:09:18.406Z,94461.00
2023-04-19T06:11:51.381Z,94465.06
2023-04-19T06:14:21.001Z,94461.34
2023-04-19T06:16:50.274Z,94472.91
2023-04-19T06:19:19.726Z,94476.50
2023-04-19T06:21:50.438Z,94465.28
2023-04-19T06:24:19.765Z,94471.22
2023-04-19T06:26:49.931Z,94462.59
2023-04-19T06:29:20.738Z,94473.34
2023-04-19T06:31:50.321Z,94470.91
2023-04-19T06:34:19.861Z,94478.41
2023-04-19T06:36:50.570Z,94485.25
2023-04-19T06:39:19.653Z,94477.56
2023-04-19T06:41:48.945Z,94486.34
2023-04-19T06:44:19.960Z,94489.34
2023-04-19T06:46:49.096Z,94486.19
2023-04-19T06:49:18.230Z,94488.16
2023-04-19T06:51:47.478Z,94486.53
2023-04-19T06:54:18.427Z,94486.66
2023-04-19T06:56:49.167Z,94488.88
2023-04-19T06:59:20.218Z,94489.47
2023-04-19T07:01:49.857Z,94498.53
2023-04-19T07:04:19.594Z,94497.28
2023-04-19T07:06:51.261Z,94492.13
2023-04-19T07:09:21.808Z,94499.16
2023-04-19T07:11:51.671Z,94495.06
2023-04-19T07:14:20.859Z,94495.91
2023-04-19T07:16:50.958Z,94495.69
2023-04-19T07:19:23.053Z,94497.22
2023-04-19T07:21:52.853Z,94497.91
2023-04-19T07:24:23.470Z,94502.72
2023-04-19T07:26:52.632Z,94503.41
2023-04-19T07:29:21.752Z,94505.66
2023-04-19T07:31:50.874Z,94503.34
2023-04-19T07:34:20.158Z,94509.81
2023-04-19T07:36:49.160Z,94502.53
2023-04-19T07:39:18.274Z,94494.56
2023-04-19T07:41:48.757Z,94506.50
2023-04-19T07:44:18.384Z,94502.00
2023-04-19T07:46:47.776Z,94513.81
2023-04-19T07:49:17.956Z,94507.78
2023-04-19T07:51:46.950Z,94514.81
2023-04-19T07:54:17.049Z,94512.72
2023-04-19T07:56:47.816Z,94516.59
2023-04-19T07:59:17.050Z,94516.28
2023-04-19T08:01:46.460Z,94515.66
2023-04-19T08:04:18.268Z,94512.72
2023-04-19T08:06:47.777Z,94513.53
2023-04-19T08:09:16.917Z,94512.19
2023-04-19T08:11:47.469Z,94516.19
2023-04-19T08:14:32.537Z,94511.25
2023-04-19T08:19:37.492Z,94509.28
2023-04-19T08:22:07.170Z,94511.59
2023-04-19T08:24:36.443Z,94515.91
2023-04-19T08:27:07.207Z,94516.88
2023-04-19T08:29:36.483Z,94520.16
2023-04-19T08:32:06.016Z,94518.34
2023-04-19T08:34:37.532Z,94504.56
2023-04-19T08:37:07.584Z,94502.41
2023-04-19T08:39:37.403Z,94511.50
2023-04-19T08:42:18.315Z,94503.75
2023-04-19T08:45:23.178Z,94502.69
2023-04-19T08:47:59.778Z,94496.03
2023-04-19T08:50:36.207Z,94499.22
2023-04-19T08:53:24.580Z,94501.63
2023-04-19T08:56:12.722Z,94496.28
2023-04-19T09:01:33.881Z,94495.78
2023-04-19T09:04:26.228Z,94499.75
2023-04-19T09:06:55.436Z,94500.03
2023-04-19T09:11:59.528Z,94493.06
2023-04-19T09:14:30.946Z,94497.47
2023-04-19T09:17:17.606Z,94495.72
2023-04-19T09:19:50.978Z,94490.47
2023-04-19T09:22:20.472Z,94479.53
2023-04-19T09:27:29.452Z,94478.88
2023-04-19T09:30:01.337Z,94487.94
2023-04-19T09:32:49.243Z,94487.75
2023-04-19T09:35:18.487Z,94485.47
2023-04-19T09:38:06.128Z,94483.31
2023-04-19T09:40:36.435Z,94473.31
2023-04-19T09:45:45.967Z,94474.50
2023-04-19T09:48:15.520Z,94478.28
2023-04-19T09:51:00.945Z,94474.91
2023-04-19T09:53:35.701Z,94472.88
2023-04-19T09:56:06.486Z,94460.19
2023-04-19T09:58:49.051Z,94467.13
2023-04-19T10:01:27.011Z,94461.34
2023-04-19T10:03:59.212Z,94464.06
2023-04-19T10:06:58.236Z,94462.91
2023-04-19T10:09:27.202Z,94459.19
2023-04-19T10:12:04.679Z,94461.09
2023-04-19T10:14:46.604Z,94454.47
2023-04-19T10:17:17.981Z,94454.47
2023-04-19T10:19:48.759Z,94454.31
2023-04-19T10:22:18.190Z,94455.81
2023-04-19T10:25:19.957Z,94458.31
2023-04-19T10:27:51.659Z,94459.41
2023-04-19T10:30:22.022Z,94454.69
2023-04-19T10:32:56.661Z,94449.69
2023-04-19T10:35:27.551Z,94445.56
2023-04-19T10:38:13.564Z,94444.38
2023-04-19T10:41:01.028Z,94440.88
2023-04-19T10:43:31.450Z,94435.31
2023-04-19T10:46:08.359Z,94424.22
2023-04-19T10:48:53.838Z,94421.00
2023-04-19T10:51:29.390Z,94429.47
2023-04-19T10:54:00.305Z,94426.59
2023-04-19T10:57:12.612Z,94423.75
2023-04-19T10:59:44.464Z,94427.19
2023-04-19T11:02:31.139Z,94426.00
2023-04-19T11:05:04.537Z,94416.31
2023-04-19T11:07:42.293Z,94420.94
2023-04-19T11:10:13.082Z,94414.38
2023-04-19T11:12:46.421Z,94409.94
2023-04-19T11:15:15.564Z,94415.91
2023-04-19T11:17:44.889Z,94399.88
2023-04-19T11:20:16.013Z,94399.34
2023-04-19T11:22:47.739Z,94398.31
2023-04-19T11:25:19.322Z,94397.34
2023-04-19T11:27:52.506Z,94405.75
2023-04-19T11:30:30.908Z,94399.56
2023-04-19T11:33:00.238Z,94403.38
2023-04-19T11:35:31.666Z,94382.63
2023-04-19T11:38:01.902Z,94399.47
2023-04-19T11:40:31.504Z,94401.22
2023-04-19T11:43:02.547Z,94393.44
2023-04-19T11:45:36.494Z,94393.75
2023-04-19T11:48:09.180Z,94394.53
2023-04-19T11:50:41.905Z,94385.16
2023-04-19T11:53:16.897Z,94393.34
2023-04-19T11:55:47.804Z,94385.34
2023-04-19T11:58:32.447Z,94395.41
2023-04-19T12:01:07.064Z,94396.81
2023-04-19T12:03:37.398Z,94384.09
2023-04-19T12:06:10.809Z,94392.97
2023-04-19T12:08:40.956Z,94384.16
2023-04-19T12:11:11.382Z,94387.28
2023-04-19T12:13:41.129Z,94380.63
2023-04-19T12:16:10.614Z,94393.03
2023-04-19T12:18:49.279Z,94382.63
2023-04-19T12:21:32.309Z,94387.34
2023-04-19T12:24:03.930Z,94383.59
2023-04-19T12:26:32.941Z,94381.31
2023-04-19T12:29:04.262Z,94389.75
2023-04-19T12:31:33.897Z,94380.28
2023-04-19T12:34:03.085Z,94382.59
2023-04-19T12:36:33.726Z,94381.75
2023-04-19T12:39:02.947Z,94368.13
2023-04-19T12:41:32.127Z,94377.38
2023-04-19T12:44:01.365Z,94376.63
2023-04-19T12:46:30.449Z,94378.47
2023-04-19T12:48:59.753Z,94372.25
2023-04-19T12:51:29.372Z,94370.81
2023-04-19T12:54:00.154Z,94369.84
2023-04-19T12:56:29.320Z,94358.06
2023-04-19T12:58:58.590Z,94356.75
2023-04-19T13:01:27.799Z,94355.22
2023-04-19T13:03:59.275Z,94356.91
2023-04-19T13:06:29.276Z,94349.56
2023-04-19T13:11:31.425Z,94349.66
2023-04-19T13:14:00.672Z,94360.69
2023-04-19T13:16:29.733Z,94354.03
2023-04-19T13:18:58.960Z,94349.53
2023-04-19T13:21:28.257Z,94353.03
2023-04-19T13:23:59.554Z,94342.91
2023-04-19T13:26:30.431Z,94343.34
2023-04-19T13:28:59.758Z,94341.06
2023-04-19T13:31:29.277Z,94330.56
2023-04-19T13:34:00.780Z,94324.88
2023-04-19T13:36:30.074Z,94328.03
2023-04-19T13:38:59.951Z,94320.69
2023-04-19T13:41:31.573Z,94331.34
2023-04-19T13:44:00.641Z,94326.19
2023-04-19T13:46:29.880Z,94317.13
2023-04-19T13:48:59.099Z,94323.25
2023-04-19T13:51:38.742Z,94320.88
2023-04-19T13:54:18.122Z,94321.25
2023-04-19T13:56:51.962Z,94323.25
2023-04-19T13:59:22.061Z,94324.56
2023-04-19T14:01:51.309Z,94322.31
2023-04-19T14:04:21.023Z,94318.91
2023-04-19T14:06:50.623Z,94323.63
2023-04-19T14:09:19.717Z,94313.97
2023-04-19T14:11:50.373Z,94314.03
2023-04-19T14:14:19.522Z,94319.88
2023-04-19T14:16:48.839Z,94313.22
2023-04-19T14:19:18.024Z,94315.91
2023-04-19T14:21:47.385Z,94318.50
2023-04-19T14:24:16.745Z,94322.16
2023-04-19T14:26:48.673Z,94310.16
2023-04-19T14:29:25.635Z,94327.28
2023-04-19T14:31:54.721Z,94315.59
2023-04-19T14:34:24.089Z,94317.44
2023-04-19T14:36:53.348Z,94323.31
2023-04-19T14:39:22.687Z,94321.81
2023-04-19T14:41:51.862Z,94321.44
2023-04-19T14:44:21.046Z,94331.38
2023-04-19T14:46:51.607Z,94326.88
2023-04-19T14:49:20.753Z,94327.66
2023-04-19T14:51:49.914Z,94321.09
2023-04-19T14:54:19.010Z,94330.75
2023-04-19T14:56:48.313Z,94330.28
2023-04-19T14:59:18.206Z,94334.59
2023-04-19T15:01:47.545Z,94335.69
2023-04-19T15:04:18.400Z,94338.31
2023-04-19T15:06:47.732Z,94336.75
2023-04-19T15:09:17.096Z,94348.78
2023-04-19T15:11:46.845Z,94356.06
2023-04-19T15:14:16.036Z,94353.91
2023-04-19T15:16:45.249Z,94341.94
2023-04-19T15:19:14.904Z,94346.88
2023-04-19T15:21:45.792Z,94350.50
2023-04-19T15:24:14.925Z,94354.94
2023-04-19T15:26:44.706Z,94350.00
2023-04-19T15:29:14.244Z,94354.13
2023-04-19T15:31:43.598Z,94349.38
2023-04-19T15:34:12.795Z,94359.84
2023-04-19T15:36:42.013Z,94357.50
2023-04-19T15:39:12.622Z,94355.97
2023-04-19T15:41:41.745Z,94350.38
2023-04-19T15:44:11.140Z,94356.88
2023-04-19T15:46:40.560Z,94357.66
2023-04-19T15:49:09.860Z,94365.59
2023-04-19T15:51:39.822Z,94362.31
2023-04-19T15:54:08.991Z,94360.34
2023-04-19T15:56:39.649Z,94365.22
2023-04-19T15:59:08.812Z,94361.22
2023-04-19T16:01:38.121Z,94374.91
2023-04-19T16:04:07.823Z,94369.13
2023-04-19T16:06:37.295Z,94372.91
2023-04-19T16:09:08.512Z,94380.25
2023-04-19T16:11:39.869Z,94370.50
2023-04-19T16:14:09.079Z,94376.69
2023-04-19T16:16:38.685Z,94372.16
2023-04-19T16:19:07.949Z,94374.63
2023-04-19T16:21:37.287Z,94383.44
2023-04-19T16:24:07.062Z,94377.63
2023-04-19T16:26:36.267Z,94375.22
2023-04-19T16:29:07.178Z,94378.72
2023-04-19T16:31:36.782Z,94385.91
2023-04-19T16:34:06.099Z,94386.44
2023-04-19T16:36:35.406Z,94392.81
2023-04-19T16:39:04.722Z,94392.03
2023-04-19T16:41:33.850Z,94394.16
2023-04-19T16:44:03.050Z,94396.25
2023-04-19T16:46:33.901Z,94396.53
2023-04-19T16:49:03.357Z,94393.88
2023-04-19T16:51:32.803Z,94400.78
2023-04-19T16:54:02.306Z,94398.38
2023-04-19T16:56:31.821Z,94408.22
2023-04-19T16:59:01.692Z,94408.50
2023-04-19T17:01:31.102Z,94404.78
2023-04-19T17:04:02.030Z,94409.81
2023-04-19T17:06:32.293Z,94414.38
2023-04-19T17:09:05.188Z,94407.97
2023-04-19T17:11:34.354Z,94413.25
2023-04-19T17:14:03.533Z,94415.06
2023-04-19T17:16:32.883Z,94423.06
2023-04-19T17:19:03.628Z,94430.75
2023-04-19T17:21:32.857Z,94426.19
2023-04-19T17:24:02.097Z,94425.13
2023-04-19T17:26:31.476Z,94428.59
2023-04-19T17:29:02.061Z,94434.72
2023-04-19T17:31:31.440Z,94433.34
2023-04-19T17:34:00.731Z,94444.72
2023-04-19T17:36:31.840Z,94436.50
2023-04-19T17:39:01.183Z,94446.63
2023-04-19T17:41:30.597Z,94449.53
2023-04-19T17:43:59.777Z,94454.56
2023-04-19T17:46:29.236Z,94458.56
2023-04-19T17:48:58.553Z,94459.69
2023-04-19T17:51:27.850Z,94466.03
2023-04-19T17:53:58.581Z,94460.97
2023-04-19T17:56:27.724Z,94470.50
2023-04-19T17:58:57.232Z,94472.94
2023-04-19T18:01:26.418Z,94472.38
2023-04-19T18:03:55.876Z,94479.28
2023-04-19T18:06:25.238Z,94478.22
2023-04-19T18:08:54.537Z,94484.59
2023-04-19T18:11:27.674Z,94489.34
2023-04-19T18:13:57.962Z,94491.97
2023-04-19T18:16:27.229Z,94500.47
2023-04-19T18:18:56.645Z,94496.16
2023-04-19T18:21:26.105Z,94503.09
2023-04-19T18:23:56.572Z,94509.16
2023-04-19T18:26:27.236Z,94518.25
2023-04-19T18:28:56.567Z,94519.88
2023-04-19T18:31:25.963Z,94521.91
2023-04-19T18:33:55.339Z,94517.66
2023-04-19T18:36:24.639Z,94532.34
2023-04-19T18:38:53.930Z,94533.09
2023-04-19T18:41:23.472Z,94535.25
2023-04-19T18:44:24.903Z,94535.50
2023-04-19T18:46:44.285Z,94531.84
2023-04-19T18:49:13.820Z,94536.91
2023-04-19T18:51:43.038Z,94534.00
2023-04-19T18:54:12.335Z,94537.44
2023-04-19T18:57:14.812Z,94541.13
2023-04-19T18:59:32.148Z,94539.50
2023-04-19T19:02:01.403Z,94535.75
2023-04-19T19:04:48.362Z,94543.22
2023-04-19T19:09:57.238Z,94539.41
2023-04-19T19:12:26.867Z,94552.09
2023-04-19T19:14:57.527Z,94542.31
2023-04-19T19:17:28.277Z,94549.94
2023-04-19T19:19:57.799Z,94547.03
2023-04-19T19:22:29.032Z,94550.78
2023-04-19T19:24:58.571Z,94545.50
2023-04-19T19:27:27.859Z,94548.06
2023-04-19T19:29:58.983Z,94548.38
2023-04-19T19:32:28.282Z,94551.75
2023-04-19T19:35:02.382Z,94557.28
2023-04-19T19:37:34.295Z,94559.00
2023-04-19T19:40:05.418Z,94551.59
2023-04-19T19:42:36.051Z,94551.59
2023-04-19T19:45:08.234Z,94546.47
2023-04-19T19:47:43.389Z,94542.06
2023-04-19T19:52:47.673Z,94545.53
2023-04-19T19:55:16.905Z,94552.38
2023-04-19T20:02:56.061Z,94560.47
2023-04-19T20:05:26.337Z,94553.53
2023-04-19T20:08:08.728Z,94556.34
2023-04-19T20:10:40.027Z,94553.34
2023-04-19T20:13:09.563Z,94557.00
2023-04-19T20:15:41.157Z,94562.97
2023-04-19T20:18:10.363Z,94567.16
2023-04-19T20:20:39.779Z,94572.66
2023-04-19T20:23:08.961Z,94561.66
2023-04-19T20:25:38.866Z,94570.91
2023-04-19T20:28:09.695Z,94558.59
2023-04-19T20:30:40.466Z,94564.38
2023-04-19T20:33:09.869Z,94566.38
2023-04-19T20:35:39.193Z,94562.63
2023-04-19T20:38:08.632Z,94559.91
2023-04-19T20:40:37.844Z,94566.31
2023-04-19T20:43:08.499Z,94564.47
2023-04-19T20:45:37.881Z,94561.81
2023-04-19T20:48:08.827Z,94567.97
2023-04-19T20:50:38.129Z,94564.22
2023-04-19T20:53:07.346Z,94566.56
2023-04-19T20:55:38.468Z,94566.56
2023-04-19T20:58:07.671Z,94562.78
2023-04-19T21:00:36.893Z,94564.34
2023-04-19T21:03:08.210Z,94560.41
2023-04-19T21:05:37.487Z,94560.31
2023-04-19T21:08:06.898Z,94562.16
2023-04-19T21:10:38.876Z,94560.88
2023-04-19T21:13:08.185Z,94567.63
2023-04-19T21:15:38.101Z,94562.50
2023-04-19T21:18:08.815Z,94572.41
2023-04-19T21:20:38.218Z,94561.19
2023-04-19T21:23:07.501Z,94562.72
2023-04-19T21:25:36.726Z,94565.75
2023-04-19T21:28:05.899Z,94567.28
2023-04-19T21:30:38.877Z,94562.53
2023-04-19T21:33:09.731Z,94566.22
2023-04-19T21:35:39.075Z,94569.44
2023-04-19T21:38:08.349Z,94569.63
2023-04-19T21:40:37.527Z,94569.63
2023-04-19T21:43:06.769Z,94578.50
2023-04-19T21:45:35.891Z,94563.44
2023-04-19T21:48:05.192Z,94568.88
2023-04-19T21:50:38.032Z,94566.22
2023-04-19T21:53:07.416Z,94565.75
2023-04-19T21:55:36.559Z,94562.88
2023-04-19T21:58:05.916Z,94566.13
2023-04-19T22:00:35.021Z,94570.69
2023-04-19T22:03:04.413Z,94571.81
2023-04-19T22:05:35.097Z,94571.06
2023-04-19T22:08:05.924Z,94572.69
2023-04-19T22:10:35.285Z,94574.63
2023-04-19T22:13:06.180Z,94578.34
2023-04-19T22:15:35.261Z,94573.28
2023-04-19T22:18:04.877Z,94574.09
2023-04-19T22:20:37.116Z,94575.78
2023-04-19T22:23:06.411Z,94575.66
2023-04-19T22:25:35.797Z,94570.47
2023-04-19T22:28:07.301Z,94571.19
2023-04-19T22:30:37.030Z,94575.28
2023-04-19T22:33:06.347Z,94571.59
2023-04-19T22:35:37.005Z,94572.88
2023-04-19T22:38:06.530Z,94579.97
2023-04-19T22:40:35.507Z,94571.75
2023-04-19T22:43:04.766Z,94577.63
2023-04-19T22:45:33.973Z,94580.34
2023-04-19T22:48:03.555Z,94568.34
2023-04-19T22:50:32.817Z,94579.66
2023-04-19T22:53:03.633Z,94570.47
2023-04-19T22:55:32.743Z,94571.94
2023-04-19T22:58:02.100Z,94557.16
2023-04-19T23:00:31.273Z,94565.09
2023-04-19T23:03:00.492Z,94555.06
2023-04-19T23:05:30.105Z,94557.94
2023-04-19T23:08:00.391Z,94553.53
2023-04-19T23:10:32.007Z,94560.13
2023-04-19T23:13:01.216Z,94553.03
2023-04-19T23:15:30.806Z,94557.84
2023-04-19T23:18:02.459Z,94563.13
2023-04-19T23:20:32.384Z,94552.78
2023-04-19T23:23:01.607Z,94553.97
2023-04-19T23:25:32.278Z,94553.66
2023-04-19T23:28:01.528Z,94555.03
2023-04-19T23:30:32.186Z,94554.72
2023-04-19T23:33:01.520Z,94551.50
2023-04-19T23:35:30.744Z,94548.00
2023-04-19T23:37:59.897Z,94546.44
2023-04-19T23:40:29.036Z,94547.00
2023-04-19T23:42:59.642Z,94546.94
2023-04-19T23:45:28.836Z,94542.44
2023-04-19T23:47:57.947Z,94540.47
2023-04-19T23:50:27.346Z,94544.50
2023-04-19T23:52:56.398Z,94548.25
2023-04-19T23:55:25.808Z,94540.91
2023-04-19T23:57:54.759Z,94547.75
